createdAt,value
2022-09-04T00:02:12.847Z,96134.28
2022-09-04T00:04:49.465Z,96135.97
2022-09-04T00:07:42.826Z,96133.03
2022-09-04T00:10:17.732Z,96129.00
2022-09-04T00:12:50.363Z,96131.66
2022-09-04T00:15:25.010Z,96137.03
2022-09-04T00:18:04.141Z,96138.06
2022-09-04T00:20:39.219Z,96143.81
2022-09-04T00:23:12.080Z,96138.22
2022-09-04T00:25:50.962Z,96140.19
2022-09-04T00:28:40.486Z,96153.31
2022-09-04T00:31:39.312Z,96147.75
2022-09-04T00:34:08.634Z,96151.00
2022-09-04T00:36:48.185Z,96160.06
2022-09-04T00:39:23.811Z,96151.25
2022-09-04T00:42:16.696Z,96155.22
2022-09-04T00:44:58.760Z,96159.03
2022-09-04T00:48:15.906Z,96153.34
2022-09-04T00:51:02.498Z,96161.00
2022-09-04T00:53:49.006Z,96156.94
2022-09-04T00:56:27.275Z,96165.88
2022-09-04T00:59:25.227Z,96177.41
2022-09-04T01:01:58.853Z,96174.75
2022-09-04T01:04:56.778Z,96173.94
2022-09-04T01:07:49.531Z,96182.28
2022-09-04T01:11:01.347Z,96180.88
2022-09-04T01:13:43.675Z,96183.19
2022-09-04T01:16:19.194Z,96188.53
2022-09-04T01:19:08.414Z,96190.06
2022-09-04T01:22:12.031Z,96182.75
2022-09-04T01:24:59.060Z,96197.50
2022-09-04T01:27:43.219Z,96205.59
2022-09-04T01:30:13.239Z,96197.84
2022-09-04T01:32:42.576Z,96199.44
2022-09-04T01:35:22.375Z,96202.22
2022-09-04T01:38:10.059Z,96212.06
2022-09-04T01:40:43.647Z,96211.81
2022-09-04T01:43:18.488Z,96217.03
2022-09-04T01:46:07.820Z,96215.31
2022-09-04T01:49:20.523Z,96206.41
2022-09-04T01:52:03.380Z,96201.91
2022-09-04T01:54:53.999Z,96214.25
2022-09-04T01:57:46.044Z,96209.34
2022-09-04T02:00:23.066Z,96209.13
2022-09-04T02:02:53.755Z,96208.78
2022-09-04T02:05:42.827Z,96212.31
2022-09-04T02:08:48.764Z,96214.88
2022-09-04T02:11:18.638Z,96217.59
2022-09-04T02:14:04.656Z,96215.78
2022-09-04T02:16:59.206Z,96216.41
2022-09-04T02:19:56.608Z,96222.09
2022-09-04T02:22:26.505Z,96219.09
2022-09-04T02:25:17.787Z,96217.03
2022-09-04T02:28:06.426Z,96216.47
2022-09-04T02:31:05.511Z,96219.38
2022-09-04T02:33:41.806Z,96215.16
2022-09-04T02:36:12.674Z,96222.69
2022-09-04T02:39:13.796Z,96220.03
2022-09-04T02:41:51.249Z,96222.69
2022-09-04T02:44:33.923Z,96218.84
2022-09-04T02:47:22.553Z,96219.50
2022-09-04T02:50:04.475Z,96217.63
2022-09-04T02:52:49.633Z,96211.16
2022-09-04T02:55:45.495Z,96219.16
2022-09-04T02:58:36.884Z,96216.50
2022-09-04T03:01:33.467Z,96211.34
2022-09-04T03:04:14.242Z,96214.31
2022-09-04T03:06:45.959Z,96215.41
2022-09-04T03:09:19.515Z,96221.09
2022-09-04T03:11:52.624Z,96230.81
2022-09-04T03:14:34.191Z,96226.06
2022-09-04T03:17:24.644Z,96225.84
2022-09-04T03:20:03.317Z,96233.50
2022-09-04T03:22:45.994Z,96239.63
2022-09-04T03:25:57.912Z,96236.47
2022-09-04T03:28:40.234Z,96223.38
2022-09-04T03:31:22.289Z,96229.78
2022-09-04T03:34:00.560Z,96232.84
2022-09-04T03:36:50.211Z,96237.53
2022-09-04T03:39:42.557Z,96235.38
2022-09-04T03:42:32.228Z,96234.94
2022-09-04T03:45:05.576Z,96241.28
2022-09-04T03:47:55.016Z,96237.88
2022-09-04T03:50:34.415Z,96238.91
2022-09-04T03:53:45.455Z,96232.34
2022-09-04T03:56:44.303Z,96238.19
2022-09-04T03:59:24.285Z,96236.88
2022-09-04T04:02:07.702Z,96239.38
2022-09-04T04:04:46.212Z,96248.03
2022-09-04T04:07:20.064Z,96245.66
2022-09-04T04:09:59.575Z,96258.84
2022-09-04T04:12:53.867Z,96251.44
2022-09-04T04:15:29.091Z,96263.34
2022-09-04T04:18:17.351Z,96264.91
2022-09-04T04:20:56.896Z,96259.31
2022-09-04T04:23:56.808Z,96261.72
2022-09-04T04:26:40.565Z,96272.84
2022-09-04T04:29:14.408Z,96282.22
2022-09-04T04:31:40.729Z,96278.47
2022-09-04T04:34:26.835Z,96284.25
2022-09-04T04:37:21.245Z,96288.41
2022-09-04T04:40:02.068Z,96288.22
2022-09-04T04:42:33.030Z,96297.00
2022-09-04T04:45:24.368Z,96297.22
2022-09-04T04:47:53.392Z,96297.75
2022-09-04T04:50:29.088Z,96306.53
2022-09-04T04:53:16.973Z,96311.38
2022-09-04T04:56:04.388Z,96311.25
2022-09-04T04:58:36.508Z,96315.53
2022-09-04T05:01:21.534Z,96314.69
2022-09-04T05:04:06.627Z,96322.03
2022-09-04T05:06:42.349Z,96321.94
2022-09-04T05:09:33.295Z,96317.88
2022-09-04T05:12:06.590Z,96329.47
2022-09-04T05:14:48.348Z,96323.69
2022-09-04T05:17:19.937Z,96327.25
2022-09-04T05:20:00.007Z,96334.06
2022-09-04T05:22:46.557Z,96336.28
2022-09-04T05:25:21.651Z,96332.84
2022-09-04T05:28:15.751Z,96335.91
2022-09-04T05:31:04.279Z,96340.13
2022-09-04T05:33:40.756Z,96342.94
2022-09-04T05:36:25.647Z,96350.78
2022-09-04T05:39:23.527Z,96349.91
2022-09-04T05:42:16.218Z,96354.75
2022-09-04T05:44:57.645Z,96362.94
2022-09-04T05:47:30.998Z,96361.44
2022-09-04T05:50:21.325Z,96366.72
2022-09-04T05:53:15.839Z,96360.00
2022-09-04T05:56:00.763Z,96366.66
2022-09-04T05:58:56.560Z,96377.91
2022-09-04T06:01:47.522Z,96380.81
2022-09-04T06:05:13.675Z,96376.84
2022-09-04T06:08:00.731Z,96375.25
2022-09-04T06:10:45.202Z,96383.63
2022-09-04T06:13:30.260Z,96377.72
2022-09-04T06:16:28.122Z,96380.03
2022-09-04T06:19:16.880Z,96387.31
2022-09-04T06:22:23.044Z,96384.50
2022-09-04T06:25:09.286Z,96378.09
2022-09-04T06:27:57.482Z,96384.91
2022-09-04T06:30:29.832Z,96387.69
2022-09-04T06:33:13.855Z,96392.72
2022-09-04T06:35:46.990Z,96396.59
2022-09-04T06:38:16.830Z,96406.47
2022-09-04T06:40:52.450Z,96410.19
2022-09-04T06:43:42.408Z,96404.13
2022-09-04T06:46:33.957Z,96404.19
2022-09-04T06:49:35.799Z,96402.50
2022-09-04T06:52:25.517Z,96406.66
2022-09-04T06:55:00.123Z,96399.97
2022-09-04T06:57:49.999Z,96407.91
2022-09-04T07:00:19.885Z,96402.19
2022-09-04T07:03:15.063Z,96420.09
2022-09-04T07:06:15.201Z,96424.94
2022-09-04T07:08:54.827Z,96423.47
2022-09-04T07:11:43.340Z,96425.59
2022-09-04T07:14:21.867Z,96423.97
2022-09-04T07:17:28.105Z,96430.72
2022-09-04T07:20:10.876Z,96436.13
2022-09-04T07:22:37.725Z,96442.38
2022-09-04T07:25:26.251Z,96445.06
2022-09-04T07:28:18.772Z,96445.78
2022-09-04T07:31:03.518Z,96443.34
2022-09-04T07:33:42.690Z,96441.28
2022-09-04T07:36:13.896Z,96444.50
2022-09-04T07:38:56.463Z,96448.19
2022-09-04T07:41:42.627Z,96444.41
2022-09-04T07:44:40.051Z,96452.28
2022-09-04T07:47:26.671Z,96455.81
2022-09-04T07:50:25.059Z,96450.59
2022-09-04T07:53:14.523Z,96464.28
2022-09-04T07:55:47.265Z,96464.03
2022-09-04T07:58:28.238Z,96466.81
2022-09-04T08:01:24.734Z,96460.91
2022-09-04T08:04:28.793Z,96466.09
2022-09-04T08:07:00.784Z,96477.81
2022-09-04T08:09:55.919Z,96474.97
2022-09-04T08:12:45.315Z,96480.84
2022-09-04T08:15:22.615Z,96486.31
2022-09-04T08:17:55.527Z,96474.38
2022-09-04T08:20:59.391Z,96480.84
2022-09-04T08:23:59.843Z,96494.13
2022-09-04T08:26:32.400Z,96484.56
2022-09-04T08:29:14.512Z,96499.00
2022-09-04T08:31:47.094Z,96491.88
2022-09-04T08:34:34.412Z,96483.66
2022-09-04T08:37:12.696Z,96492.69
2022-09-04T08:40:18.087Z,96494.50
2022-09-04T08:43:04.014Z,96499.81
2022-09-04T08:45:46.287Z,96489.28
2022-09-04T08:48:35.543Z,96504.38
2022-09-04T08:51:18.499Z,96494.91
2022-09-04T08:54:05.747Z,96493.50
2022-09-04T08:56:48.884Z,96499.69
2022-09-04T08:59:37.352Z,96497.03
2022-09-04T09:02:11.951Z,96488.88
2022-09-04T09:05:15.664Z,96485.41
2022-09-04T09:07:58.768Z,96493.72
2022-09-04T09:10:43.035Z,96492.50
2022-09-04T09:13:21.923Z,96484.78
2022-09-04T09:16:03.652Z,96487.03
2022-09-04T09:18:52.071Z,96486.81
2022-09-04T09:21:53.822Z,96483.78
2022-09-04T09:24:39.539Z,96485.78
2022-09-04T09:27:22.171Z,96486.88
2022-09-04T09:30:36.813Z,96487.69
2022-09-04T09:33:05.863Z,96491.72
2022-09-04T09:36:09.795Z,96491.47
2022-09-04T09:39:13.982Z,96481.84
2022-09-04T09:41:54.686Z,96478.28
2022-09-04T09:44:42.775Z,96474.94
2022-09-04T09:47:32.229Z,96471.91
2022-09-04T09:50:38.248Z,96474.44
2022-09-04T09:53:22.246Z,96471.69
2022-09-04T09:56:00.339Z,96474.63
2022-09-04T09:58:45.758Z,96477.97
2022-09-04T10:01:24.588Z,96469.31
2022-09-04T10:04:40.389Z,96478.81
2022-09-04T10:07:19.703Z,96464.41
2022-09-04T10:10:13.368Z,96467.72
2022-09-04T10:12:42.431Z,96470.63
2022-09-04T10:15:21.314Z,96469.94
2022-09-04T10:18:04.788Z,96461.00
2022-09-04T10:20:59.259Z,96461.88
2022-09-04T10:23:25.686Z,96462.91
2022-09-04T10:26:03.068Z,96475.44
2022-09-04T10:29:10.880Z,96467.38
2022-09-04T10:31:50.832Z,96453.28
2022-09-04T10:34:40.023Z,96467.28
2022-09-04T10:37:33.951Z,96467.03
2022-09-04T10:40:22.022Z,96457.31
2022-09-04T10:43:24.047Z,96462.06
2022-09-04T10:46:23.229Z,96474.69
2022-09-04T10:48:59.336Z,96475.94
2022-09-04T10:51:52.321Z,96474.97
2022-09-04T10:54:26.328Z,96475.44
2022-09-04T10:57:14.086Z,96463.59
2022-09-04T10:59:59.422Z,96472.97
2022-09-04T11:03:03.234Z,96471.41
2022-09-04T11:05:41.788Z,96471.50
2022-09-04T11:08:46.992Z,96473.44
2022-09-04T11:11:48.232Z,96473.69
2022-09-04T11:14:28.811Z,96474.28
2022-09-04T11:17:14.430Z,96476.84
2022-09-04T11:20:17.586Z,96472.66
2022-09-04T11:22:57.104Z,96463.56
2022-09-04T11:26:06.262Z,96462.41
2022-09-04T11:29:14.221Z,96474.81
2022-09-04T11:32:14.557Z,96461.97
2022-09-04T11:35:19.271Z,96463.88
2022-09-04T11:38:08.824Z,96472.09
2022-09-04T11:41:05.794Z,96466.53
2022-09-04T11:43:54.241Z,96462.66
2022-09-04T11:46:27.307Z,96458.09
2022-09-04T11:49:38.848Z,96465.63
2022-09-04T11:52:14.718Z,96460.53
2022-09-04T11:54:48.343Z,96457.81
2022-09-04T11:57:43.743Z,96474.06
2022-09-04T12:00:13.517Z,96464.03
2022-09-04T12:03:13.786Z,96473.31
2022-09-04T12:06:11.171Z,96462.69
2022-09-04T12:08:56.948Z,96467.97
2022-09-04T12:12:00.892Z,96466.44
2022-09-04T12:14:30.515Z,96457.44
2022-09-04T12:17:02.974Z,96451.81
2022-09-04T12:19:42.669Z,96456.56
2022-09-04T12:22:37.156Z,96463.78
2022-09-04T12:25:25.282Z,96461.22
2022-09-04T12:28:25.455Z,96458.88
2022-09-04T12:30:51.753Z,96472.50
2022-09-04T12:33:33.736Z,96460.72
2022-09-04T12:36:06.065Z,96458.06
2022-09-04T12:38:59.111Z,96453.22
2022-09-04T12:41:49.742Z,96464.75
2022-09-04T12:44:35.058Z,96463.22
2022-09-04T12:47:13.838Z,96459.66
2022-09-04T12:49:46.527Z,96451.25
2022-09-04T12:52:40.032Z,96458.59
2022-09-04T12:55:38.842Z,96462.44
2022-09-04T12:58:31.114Z,96471.31
2022-09-04T13:01:24.200Z,96457.72
2022-09-04T13:04:15.426Z,96462.41
2022-09-04T13:07:16.356Z,96464.63
2022-09-04T13:10:10.212Z,96470.22
2022-09-04T13:13:00.215Z,96470.25
2022-09-04T13:15:45.012Z,96460.97
2022-09-04T13:18:26.861Z,96464.50
2022-09-04T13:21:05.917Z,96469.69
2022-09-04T13:23:50.203Z,96466.84
2022-09-04T13:26:42.573Z,96462.44
2022-09-04T13:29:16.314Z,96467.50
2022-09-04T13:32:08.504Z,96465.03
2022-09-04T13:35:09.191Z,96469.69
2022-09-04T13:37:45.817Z,96469.84
2022-09-04T13:40:26.304Z,96465.03
2022-09-04T13:43:25.578Z,96464.81
2022-09-04T13:45:55.638Z,96470.75
2022-09-04T13:48:44.839Z,96465.00
2022-09-04T13:51:18.217Z,96471.41
2022-09-04T13:54:07.148Z,96464.03
2022-09-04T13:56:39.677Z,96460.72
2022-09-04T13:59:11.021Z,96457.81
2022-09-04T14:01:45.844Z,96459.50
2022-09-04T14:04:27.719Z,96465.78
2022-09-04T14:07:06.579Z,96463.97
2022-09-04T14:09:41.178Z,96465.00
2022-09-04T14:12:40.435Z,96467.53
2022-09-04T14:16:02.919Z,96467.81
2022-09-04T14:18:59.982Z,96474.84
2022-09-04T14:22:05.126Z,96477.97
2022-09-04T14:24:50.256Z,96478.34
2022-09-04T14:27:55.646Z,96479.22
2022-09-04T14:30:23.318Z,96481.53
2022-09-04T14:33:06.240Z,96468.25
2022-09-04T14:35:49.247Z,96475.72
2022-09-04T14:38:55.008Z,96480.38
2022-09-04T14:41:36.115Z,96476.81
2022-09-04T14:44:39.455Z,96472.97
2022-09-04T14:47:22.611Z,96475.16
2022-09-04T14:49:52.311Z,96475.03
2022-09-04T14:52:28.353Z,96473.78
2022-09-04T14:54:58.191Z,96477.22
2022-09-04T14:57:36.704Z,96483.97
2022-09-04T15:00:20.231Z,96473.63
2022-09-04T15:03:07.923Z,96469.41
2022-09-04T15:05:47.643Z,96474.47
2022-09-04T15:08:34.679Z,96477.19
2022-09-04T15:11:09.183Z,96481.81
2022-09-04T15:14:04.739Z,96475.16
2022-09-04T15:16:40.501Z,96476.94
2022-09-04T15:19:40.768Z,96475.16
2022-09-04T15:22:18.454Z,96476.19
2022-09-04T15:24:44.752Z,96469.38
2022-09-04T15:27:20.898Z,96471.84
2022-09-04T15:29:53.680Z,96472.53
2022-09-04T15:32:31.739Z,96477.50
2022-09-04T15:35:20.040Z,96466.19
2022-09-04T15:38:03.182Z,96473.66
2022-09-04T15:41:05.816Z,96477.91
2022-09-04T15:43:31.310Z,96474.94
2022-09-04T15:46:05.128Z,96471.69
2022-09-04T15:48:53.061Z,96470.16
2022-09-04T15:51:28.288Z,96475.06
2022-09-04T15:54:10.000Z,96473.75
2022-09-04T15:56:42.359Z,96470.94
2022-09-04T15:59:18.097Z,96471.44
2022-09-04T16:01:48.133Z,96476.13
2022-09-04T16:04:25.640Z,96473.28
2022-09-04T16:07:34.248Z,96466.41
2022-09-04T16:10:26.146Z,96479.44
2022-09-04T16:12:59.119Z,96468.47
2022-09-04T16:15:32.208Z,96468.44
2022-09-04T16:18:14.528Z,96476.09
2022-09-04T16:20:48.849Z,96470.56
2022-09-04T16:23:18.800Z,96467.50
2022-09-04T16:25:50.247Z,96468.31
2022-09-04T16:28:25.461Z,96465.06
2022-09-04T16:31:05.119Z,96468.00
2022-09-04T16:33:43.721Z,96472.41
2022-09-04T16:36:17.599Z,96461.97
2022-09-04T16:39:13.675Z,96463.28
2022-09-04T16:41:56.653Z,96472.25
2022-09-04T16:44:45.775Z,96470.91
2022-09-04T16:47:24.339Z,96478.56
2022-09-04T16:50:02.840Z,96480.41
2022-09-04T16:52:40.278Z,96467.38
2022-09-04T16:55:12.471Z,96478.63
2022-09-04T16:57:53.763Z,96474.97
2022-09-04T17:00:22.802Z,96477.19
2022-09-04T17:03:21.666Z,96467.72
2022-09-04T17:05:58.866Z,96476.19
2022-09-04T17:09:21.396Z,96482.28
2022-09-04T17:11:55.665Z,96478.34
2022-09-04T17:14:36.314Z,96478.44
2022-09-04T17:17:30.723Z,96487.50
2022-09-04T17:20:10.345Z,96485.94
2022-09-04T17:28:59.850Z,96489.22
2022-09-04T17:29:14.875Z,96488.44
2022-09-04T17:29:34.287Z,96490.84
2022-09-04T17:33:52.171Z,96493.34
2022-09-04T17:40:32.814Z,96482.81
2022-09-04T17:40:48.036Z,96479.59
2022-09-04T17:41:39.747Z,96476.59
2022-09-04T17:44:36.453Z,96472.78
2022-09-04T17:47:20.019Z,96484.31
2022-09-04T17:49:51.897Z,96487.00
2022-09-04T17:52:27.172Z,96487.41
2022-09-04T17:54:58.783Z,96493.25
2022-09-04T17:58:12.293Z,96497.75
2022-09-04T18:01:15.148Z,96502.78
2022-09-04T18:04:20.536Z,96508.34
2022-09-04T18:06:54.708Z,96515.28
2022-09-04T18:10:09.243Z,96513.59
2022-09-04T18:13:01.406Z,96514.28
2022-09-04T18:15:35.944Z,96521.66
2022-09-04T18:18:28.139Z,96532.44
2022-09-04T18:21:11.113Z,96526.38
2022-09-04T18:24:00.774Z,96530.44
2022-09-04T18:26:40.094Z,96532.47
2022-09-04T18:30:02.033Z,96540.22
2022-09-04T18:37:11.680Z,96535.44
2022-09-04T18:37:22.644Z,96541.44
2022-09-04T18:38:02.112Z,96554.97
2022-09-04T18:44:19.348Z,96550.84
2022-09-04T18:50:31.189Z,96564.59
2022-09-04T18:50:34.160Z,96551.25
2022-09-04T18:50:41.035Z,96559.13
2022-09-04T18:52:47.751Z,96570.31
2022-09-04T18:55:19.572Z,96568.06
2022-09-04T18:57:52.598Z,96566.47
2022-09-04T19:00:30.595Z,96570.84
2022-09-04T19:03:19.139Z,96567.69
2022-09-04T19:05:48.740Z,96573.53
2022-09-04T19:08:26.034Z,96575.09
2022-09-04T19:11:01.380Z,96577.09
2022-09-04T19:14:10.739Z,96579.91
2022-09-04T19:16:44.672Z,96573.09
2022-09-04T19:19:17.381Z,96574.03
2022-09-04T19:22:01.266Z,96574.91
2022-09-04T19:24:38.687Z,96577.66
2022-09-04T19:27:27.235Z,96579.44
2022-09-04T19:30:18.367Z,96575.97
2022-09-04T19:33:19.678Z,96583.72
2022-09-04T19:35:56.332Z,96579.31
2022-09-04T19:44:44.485Z,96575.78
2022-09-04T19:45:53.747Z,96579.06
2022-09-04T19:46:19.136Z,96579.06
2022-09-04T19:47:28.759Z,96577.44
2022-09-04T19:53:20.213Z,96577.22
2022-09-04T19:53:35.615Z,96583.88
2022-09-04T19:56:18.250Z,96582.94
2022-09-04T19:58:56.462Z,96578.63
2022-09-04T20:01:29.027Z,96578.19
2022-09-04T20:04:22.630Z,96587.50
2022-09-04T20:07:03.949Z,96574.69
2022-09-04T20:09:33.610Z,96579.22
2022-09-04T20:12:16.511Z,96574.22
2022-09-04T20:14:55.333Z,96574.13
2022-09-04T20:17:45.041Z,96579.00
2022-09-04T20:20:23.669Z,96581.41
2022-09-04T20:23:00.027Z,96575.59
2022-09-04T20:25:48.904Z,96574.19
2022-09-04T20:28:36.362Z,96572.53
2022-09-04T20:31:35.321Z,96575.81
2022-09-04T20:34:11.927Z,96570.66
2022-09-04T20:36:48.902Z,96577.94
2022-09-04T20:39:34.647Z,96574.16
2022-09-04T20:42:21.882Z,96585.44
2022-09-04T20:46:35.563Z,96577.28
2022-09-04T20:52:48.891Z,96583.63
2022-09-04T20:52:51.802Z,96582.38
2022-09-04T20:54:28.529Z,96582.81
2022-09-04T20:58:28.262Z,96586.03
2022-09-04T21:03:15.215Z,96576.94
2022-09-04T21:03:29.444Z,96581.56
2022-09-04T21:06:17.133Z,96580.75
2022-09-04T21:09:11.385Z,96582.47
2022-09-04T21:11:43.754Z,96584.78
2022-09-04T21:14:26.811Z,96590.84
2022-09-04T21:17:38.380Z,96590.56
2022-09-04T21:20:19.078Z,96592.16
2022-09-04T21:23:07.792Z,96594.81
2022-09-04T21:25:46.245Z,96595.94
2022-09-04T21:28:33.912Z,96594.47
2022-09-04T21:31:32.749Z,96590.91
2022-09-04T21:34:13.821Z,96601.16
2022-09-04T21:36:47.116Z,96597.75
2022-09-04T21:39:26.246Z,96603.38
2022-09-04T21:42:00.298Z,96597.44
2022-09-04T21:45:08.532Z,96605.28
2022-09-04T21:48:17.885Z,96613.19
2022-09-04T21:51:03.829Z,96617.22
2022-09-04T21:53:59.507Z,96608.41
2022-09-04T22:02:31.938Z,96610.03
2022-09-04T22:02:35.106Z,96613.91
2022-09-04T22:03:31.767Z,96619.59
2022-09-04T22:06:04.803Z,96622.84
2022-09-04T22:13:29.292Z,96614.50
2022-09-04T22:13:39.582Z,96614.75
2022-09-04T22:14:50.415Z,96608.41
2022-09-04T22:17:28.080Z,96608.91
2022-09-04T22:20:18.881Z,96611.13
2022-09-04T22:23:04.411Z,96604.84
2022-09-04T22:25:47.475Z,96609.41
2022-09-04T22:28:30.346Z,96598.81
2022-09-04T22:31:33.413Z,96597.03
2022-09-04T22:34:18.666Z,96594.50
2022-09-04T22:37:06.981Z,96604.75
2022-09-04T22:39:45.349Z,96604.59
2022-09-04T22:42:37.321Z,96606.31
2022-09-04T22:45:10.700Z,96593.25
2022-09-04T22:47:54.281Z,96592.41
2022-09-04T22:50:20.671Z,96594.47
2022-09-04T22:52:59.171Z,96595.06
2022-09-04T22:56:00.664Z,96594.06
2022-09-04T22:58:37.530Z,96591.63
2022-09-04T23:01:25.218Z,96593.69
2022-09-04T23:04:23.128Z,96593.88
2022-09-04T23:12:30.272Z,96598.63
2022-09-04T23:13:59.147Z,96605.41
2022-09-04T23:14:02.933Z,96604.44
2022-09-04T23:16:34.566Z,96611.78
2022-09-04T23:26:34.951Z,96625.75
2022-09-04T23:26:50.720Z,96623.13
2022-09-04T23:26:58.333Z,96616.63
2022-09-04T23:29:32.689Z,96617.84
2022-09-04T23:32:29.693Z,96617.63
2022-09-04T23:35:36.404Z,96619.66
2022-09-04T23:38:41.669Z,96614.97
2022-09-04T23:41:50.534Z,96611.91
2022-09-04T23:44:38.967Z,96609.06
2022-09-04T23:47:47.734Z,96604.59
2022-09-04T23:50:32.604Z,96612.56
2022-09-04T23:53:08.154Z,96603.56
2022-09-04T23:56:01.391Z,96614.44
2022-09-04T23:59:22.863Z,96616.09
